createdAt,value
2018-12-30T00:00:22.417Z,313.33
2018-12-30T00:01:22.453Z,312.80
2018-12-30T00:02:22.388Z,313.14
2018-12-30T00:03:22.410Z,312.87
2018-12-30T00:04:22.372Z,312.75
2018-12-30T00:05:22.365Z,313.02
2018-12-30T00:06:22.359Z,312.69
2018-12-30T00:07:22.340Z,312.85
2018-12-30T00:08:22.349Z,313.35
2018-12-30T00:09:22.325Z,313.10
2018-12-30T00:10:22.331Z,312.88
2018-12-30T00:11:22.299Z,312.97
2018-12-30T00:12:22.277Z,313.31
2018-12-30T00:13:22.287Z,313.31
2018-12-30T00:14:22.264Z,313.12
2018-12-30T00:15:22.266Z,313.03
2018-12-30T00:16:22.259Z,313.14
2018-12-30T00:17:22.237Z,313.07
2018-12-30T00:18:22.253Z,312.94
2018-12-30T00:19:22.215Z,312.84
2018-12-30T00:20:22.217Z,312.67
2018-12-30T00:21:22.189Z,312.59
2018-12-30T00:22:22.188Z,312.91
2018-12-30T00:23:22.186Z,312.73
2018-12-30T00:24:22.150Z,312.53
2018-12-30T00:25:22.149Z,312.67
2018-12-30T00:26:22.128Z,313.04
2018-12-30T00:27:22.154Z,312.84
2018-12-30T00:28:22.135Z,313.13
2018-12-30T00:29:22.117Z,312.86
2018-12-30T00:30:22.092Z,313.26
2018-12-30T00:31:22.073Z,312.75
2018-12-30T00:32:22.063Z,312.98
2018-12-30T00:33:22.083Z,313.09
2018-12-30T00:34:22.045Z,312.99
2018-12-30T00:35:22.030Z,312.69
2018-12-30T00:36:22.022Z,313.06
2018-12-30T00:37:22.006Z,313.29
2018-12-30T00:38:22.030Z,313.46
2018-12-30T00:39:21.995Z,312.89
2018-12-30T00:40:21.985Z,312.86
2018-12-30T00:41:21.972Z,313.25
2018-12-30T00:42:21.974Z,313.30
2018-12-30T00:43:21.939Z,313.04
2018-12-30T00:44:21.954Z,313.47
2018-12-30T00:45:21.922Z,312.96
2018-12-30T00:46:21.916Z,313.18
2018-12-30T00:47:21.905Z,312.75
2018-12-30T00:48:21.910Z,312.99
2018-12-30T00:49:21.900Z,312.66
2018-12-30T00:50:21.859Z,312.85
2018-12-30T00:51:21.864Z,313.00
2018-12-30T00:52:21.853Z,312.99
2018-12-30T00:53:21.845Z,312.98
2018-12-30T00:54:21.853Z,312.88
2018-12-30T00:55:21.816Z,312.98
2018-12-30T00:56:21.807Z,312.88
2018-12-30T00:57:21.788Z,312.82
2018-12-30T00:58:21.780Z,312.81
2018-12-30T00:59:21.805Z,312.87
2018-12-30T01:00:21.765Z,312.44
2018-12-30T01:01:21.756Z,313.06
2018-12-30T01:02:21.741Z,312.62
2018-12-30T01:03:21.753Z,313.25
2018-12-30T01:04:21.716Z,313.29
2018-12-30T01:05:21.743Z,312.95
2018-12-30T01:06:21.706Z,312.64
2018-12-30T01:07:21.690Z,312.58
2018-12-30T01:08:21.670Z,312.82
2018-12-30T01:09:21.692Z,312.92
2018-12-30T01:10:21.651Z,312.67
2018-12-30T01:11:21.648Z,312.52
2018-12-30T01:12:21.630Z,312.56
2018-12-30T01:13:21.624Z,312.63
2018-12-30T01:14:21.611Z,313.11
2018-12-30T01:15:21.619Z,312.88
2018-12-30T01:16:21.578Z,313.02
2018-12-30T01:17:21.576Z,312.85
2018-12-30T01:18:21.560Z,312.73
2018-12-30T01:19:21.564Z,312.92
2018-12-30T01:20:21.559Z,313.24
2018-12-30T01:21:25.113Z,312.54
2018-12-30T01:22:21.513Z,312.91
2018-12-30T01:23:21.520Z,312.92
2018-12-30T01:24:21.503Z,313.23
2018-12-30T01:25:21.522Z,313.15
2018-12-30T01:26:21.479Z,312.73
2018-12-30T01:27:21.461Z,313.14
2018-12-30T01:28:21.454Z,313.10
2018-12-30T01:29:21.533Z,313.06
2018-12-30T01:30:21.436Z,313.04
2018-12-30T01:31:21.449Z,312.88
2018-12-30T01:32:21.425Z,313.32
2018-12-30T01:33:21.412Z,313.15
2018-12-30T01:34:21.396Z,313.22
2018-12-30T01:35:21.381Z,313.32
2018-12-30T01:36:21.396Z,313.55
2018-12-30T01:37:21.370Z,312.86
2018-12-30T01:38:21.352Z,313.10
2018-12-30T01:39:21.335Z,313.53
2018-12-30T01:40:21.341Z,313.09
2018-12-30T01:41:21.309Z,313.08
2018-12-30T01:42:21.324Z,313.45
2018-12-30T01:43:21.318Z,313.55
2018-12-30T01:44:21.288Z,313.31
2018-12-30T01:45:21.311Z,313.37
2018-12-30T01:46:21.264Z,313.63
2018-12-30T01:47:21.239Z,313.50
2018-12-30T01:48:21.246Z,313.65
2018-12-30T01:49:21.223Z,313.69
2018-12-30T01:50:21.208Z,313.28
2018-12-30T01:51:21.224Z,313.31
2018-12-30T01:52:21.195Z,313.77
2018-12-30T01:53:21.171Z,313.87
2018-12-30T01:54:21.164Z,313.64
2018-12-30T01:55:21.160Z,313.18
2018-12-30T01:56:21.167Z,313.13
2018-12-30T01:57:21.139Z,313.20
2018-12-30T01:58:21.171Z,313.23
2018-12-30T01:59:21.111Z,313.36
2018-12-30T02:00:21.110Z,313.20
2018-12-30T02:01:21.122Z,313.38
2018-12-30T02:02:22.037Z,312.98
2018-12-30T02:03:21.112Z,313.06
2018-12-30T02:04:21.068Z,313.07
2018-12-30T02:05:21.075Z,313.38
2018-12-30T02:06:21.042Z,313.04
2018-12-30T02:07:21.033Z,313.00
2018-12-30T02:08:21.019Z,313.12
2018-12-30T02:09:21.368Z,312.98
2018-12-30T02:10:20.999Z,313.20
2018-12-30T02:11:20.972Z,313.39
2018-12-30T02:12:20.983Z,313.00
2018-12-30T02:13:20.955Z,313.17
2018-12-30T02:14:20.963Z,313.64
2018-12-30T02:15:20.947Z,313.81
2018-12-30T02:16:20.929Z,313.87
2018-12-30T02:17:20.917Z,313.71
2018-12-30T02:18:20.919Z,313.53
2018-12-30T02:19:20.921Z,313.40
2018-12-30T02:20:20.881Z,313.51
2018-12-30T02:21:20.865Z,313.78
2018-12-30T02:22:20.865Z,314.16
2018-12-30T02:23:20.857Z,314.02
2018-12-30T02:24:20.850Z,313.86
2018-12-30T02:25:20.841Z,313.70
2018-12-30T02:26:20.843Z,313.59
2018-12-30T02:27:20.812Z,313.53
2018-12-30T02:28:20.802Z,313.75
2018-12-30T02:29:20.841Z,313.61
2018-12-30T02:30:20.783Z,313.49
2018-12-30T02:31:20.765Z,313.74
2018-12-30T02:32:20.748Z,313.32
2018-12-30T02:33:20.772Z,313.40
2018-12-30T02:34:21.071Z,313.52
2018-12-30T02:35:20.740Z,313.43
2018-12-30T02:36:20.713Z,313.59
2018-12-30T02:37:20.720Z,313.20
2018-12-30T02:38:20.699Z,313.43
2018-12-30T02:39:20.724Z,313.77
2018-12-30T02:40:20.687Z,313.23
2018-12-30T02:41:20.661Z,313.15
2018-12-30T02:42:20.646Z,313.41
2018-12-30T02:43:20.633Z,313.21
2018-12-30T02:44:20.635Z,312.83
2018-12-30T02:45:20.599Z,312.85
2018-12-30T02:46:20.667Z,312.98
2018-12-30T02:47:20.592Z,312.61
2018-12-30T02:48:20.587Z,312.58
2018-12-30T02:49:20.574Z,312.72
2018-12-30T02:50:20.580Z,312.59
2018-12-30T02:51:20.545Z,312.24
2018-12-30T02:52:20.533Z,312.22
2018-12-30T02:53:20.536Z,312.67
2018-12-30T02:54:20.514Z,312.36
2018-12-30T02:55:20.523Z,312.08
2018-12-30T02:56:20.495Z,312.01
2018-12-30T02:57:20.470Z,312.17
2018-12-30T02:58:20.473Z,312.16
2018-12-30T02:59:20.458Z,312.25
2018-12-30T03:00:20.465Z,312.52
2018-12-30T03:01:20.444Z,312.02
2018-12-30T03:02:20.428Z,311.77
2018-12-30T03:03:20.415Z,311.85
2018-12-30T03:04:20.404Z,312.21
2018-12-30T03:05:20.410Z,312.38
2018-12-30T03:06:20.390Z,312.29
2018-12-30T03:07:20.375Z,311.85
2018-12-30T03:08:20.360Z,312.43
2018-12-30T03:09:20.351Z,312.25
2018-12-30T03:10:20.367Z,312.20
2018-12-30T03:11:20.339Z,312.15
2018-12-30T03:12:20.360Z,312.39
2018-12-30T03:13:20.310Z,312.34
2018-12-30T03:14:20.311Z,312.23
2018-12-30T03:15:20.273Z,312.26
2018-12-30T03:16:20.291Z,312.20
2018-12-30T03:17:20.267Z,311.54
2018-12-30T03:18:20.243Z,311.65
2018-12-30T03:19:20.246Z,311.93
2018-12-30T03:20:20.228Z,312.09
2018-12-30T03:21:20.264Z,312.04
2018-12-30T03:22:20.210Z,311.95
2018-12-30T03:23:20.191Z,312.28
2018-12-30T03:24:20.175Z,312.16
2018-12-30T03:25:20.163Z,312.51
2018-12-30T03:26:20.153Z,312.60
2018-12-30T03:27:20.176Z,312.85
2018-12-30T03:28:20.143Z,312.71
2018-12-30T03:29:20.123Z,312.40
2018-12-30T03:30:20.164Z,312.74
2018-12-30T03:31:20.119Z,312.24
2018-12-30T03:32:20.136Z,312.42
2018-12-30T03:33:20.099Z,312.04
2018-12-30T03:34:20.081Z,312.63
2018-12-30T03:35:20.070Z,312.86
2018-12-30T03:36:20.055Z,312.90
2018-12-30T03:37:20.030Z,312.30
2018-12-30T03:38:20.077Z,312.49
2018-12-30T03:39:20.122Z,312.40
2018-12-30T03:40:20.012Z,312.47
2018-12-30T03:41:19.994Z,312.61
2018-12-30T03:42:20.387Z,312.18
2018-12-30T03:43:19.987Z,311.89
2018-12-30T03:44:19.953Z,311.70
2018-12-30T03:45:19.962Z,312.08
2018-12-30T03:46:19.943Z,311.80
2018-12-30T03:47:19.921Z,312.10
2018-12-30T03:48:19.930Z,312.05
2018-12-30T03:49:19.896Z,312.58
2018-12-30T03:50:19.886Z,311.93
2018-12-30T03:51:19.887Z,312.07
2018-12-30T03:52:19.885Z,311.63
2018-12-30T03:53:19.893Z,311.84
2018-12-30T03:54:19.857Z,312.29
2018-12-30T03:55:19.838Z,312.24
2018-12-30T03:56:19.825Z,312.10
2018-12-30T03:57:19.807Z,312.20
2018-12-30T03:58:19.798Z,313.22
2018-12-30T03:59:19.822Z,312.39
2018-12-30T04:00:19.785Z,311.67
2018-12-30T04:01:19.771Z,312.17
2018-12-30T04:02:19.759Z,311.97
2018-12-30T04:03:19.759Z,311.77
2018-12-30T04:04:19.779Z,311.80
2018-12-30T04:05:19.743Z,311.96
2018-12-30T04:06:19.719Z,312.52
2018-12-30T04:07:19.720Z,311.69
2018-12-30T04:08:19.689Z,311.75
2018-12-30T04:09:19.678Z,311.73
2018-12-30T04:10:19.706Z,312.04
2018-12-30T04:11:19.672Z,311.84
2018-12-30T04:12:19.656Z,311.77
2018-12-30T04:13:19.665Z,311.65
2018-12-30T04:14:19.636Z,311.77
2018-12-30T04:15:19.631Z,311.57
2018-12-30T04:16:19.615Z,311.89
2018-12-30T04:17:19.607Z,311.57
2018-12-30T04:18:19.589Z,311.64
2018-12-30T04:19:19.569Z,311.57
2018-12-30T04:20:19.580Z,311.52
2018-12-30T04:21:19.544Z,312.23
2018-12-30T04:22:19.542Z,312.08
2018-12-30T04:23:19.529Z,312.10
2018-12-30T04:24:19.529Z,312.05
2018-12-30T04:25:19.524Z,311.83
2018-12-30T04:26:19.502Z,311.74
2018-12-30T04:27:19.483Z,311.93
2018-12-30T04:28:19.472Z,311.73
2018-12-30T04:29:19.456Z,311.84
2018-12-30T04:30:19.489Z,312.01
2018-12-30T04:31:19.444Z,311.58
2018-12-30T04:32:19.440Z,311.63
2018-12-30T04:33:19.418Z,311.39
2018-12-30T04:34:19.409Z,311.56
2018-12-30T04:35:19.432Z,312.24
2018-12-30T04:36:19.401Z,311.70
2018-12-30T04:37:19.373Z,312.44
2018-12-30T04:38:19.379Z,312.11
2018-12-30T04:39:19.348Z,311.71
2018-12-30T04:40:19.328Z,311.52
2018-12-30T04:41:19.341Z,311.82
2018-12-30T04:42:19.314Z,311.95
2018-12-30T04:43:19.699Z,311.87
2018-12-30T04:44:19.295Z,311.65
2018-12-30T04:45:19.287Z,311.32
2018-12-30T04:46:19.284Z,311.70
2018-12-30T04:47:19.259Z,311.54
2018-12-30T04:48:19.268Z,311.60
2018-12-30T04:49:19.253Z,311.91
2018-12-30T04:50:19.248Z,311.92
2018-12-30T04:51:19.228Z,311.51
2018-12-30T04:52:25.625Z,311.72
2018-12-30T04:53:20.217Z,311.83
2018-12-30T04:54:19.185Z,311.74
2018-12-30T04:55:19.185Z,311.99
2018-12-30T04:56:19.167Z,311.94
2018-12-30T04:57:19.163Z,311.85
2018-12-30T04:58:19.171Z,312.73
2018-12-30T04:59:19.125Z,312.55
2018-12-30T05:00:19.120Z,311.79
2018-12-30T05:01:19.119Z,311.69
2018-12-30T05:02:19.093Z,311.68
2018-12-30T05:03:19.120Z,311.88
2018-12-30T05:04:19.074Z,311.88
2018-12-30T05:05:19.063Z,311.79
2018-12-30T05:06:19.055Z,311.65
2018-12-30T05:07:19.057Z,311.65
2018-12-30T05:08:19.035Z,311.70
2018-12-30T05:09:19.044Z,312.11
2018-12-30T05:10:19.022Z,312.24
2018-12-30T05:11:18.995Z,312.06
2018-12-30T05:12:18.986Z,311.98
2018-12-30T05:13:18.981Z,311.86
2018-12-30T05:14:18.988Z,312.41
2018-12-30T05:15:18.956Z,312.30
2018-12-30T05:16:18.950Z,311.82
2018-12-30T05:17:18.941Z,311.58
2018-12-30T05:18:18.929Z,311.59
2018-12-30T05:19:18.924Z,311.93
2018-12-30T05:20:18.895Z,311.55
2018-12-30T05:21:18.907Z,311.75
2018-12-30T05:22:18.877Z,311.89
2018-12-30T05:23:18.868Z,311.94
2018-12-30T05:24:18.882Z,311.85
2018-12-30T05:25:18.840Z,312.00
2018-12-30T05:26:18.830Z,311.27
2018-12-30T05:27:18.830Z,311.54
2018-12-30T05:28:18.819Z,311.67
2018-12-30T05:29:18.799Z,311.40
2018-12-30T05:30:18.818Z,311.16
2018-12-30T05:31:18.780Z,311.36
2018-12-30T05:32:18.769Z,311.20
2018-12-30T05:33:18.758Z,310.99
2018-12-30T05:34:18.744Z,311.16
2018-12-30T05:35:19.515Z,310.96
2018-12-30T05:36:18.728Z,310.31
2018-12-30T05:37:18.711Z,310.70
2018-12-30T05:38:18.695Z,310.80
2018-12-30T05:39:18.700Z,310.86
2018-12-30T05:40:18.700Z,311.02
2018-12-30T05:41:18.698Z,311.03
2018-12-30T05:42:18.669Z,311.03
2018-12-30T05:43:18.648Z,310.90
2018-12-30T05:44:18.643Z,310.87
2018-12-30T05:45:18.624Z,310.49
2018-12-30T05:46:18.628Z,310.47
2018-12-30T05:47:18.607Z,310.63
2018-12-30T05:48:18.595Z,310.51
2018-12-30T05:49:18.583Z,310.75
2018-12-30T05:50:18.569Z,310.47
2018-12-30T05:51:18.593Z,310.88
2018-12-30T05:52:18.538Z,310.68
2018-12-30T05:53:18.544Z,310.30
2018-12-30T05:54:18.542Z,310.81
2018-12-30T05:55:18.511Z,311.59
2018-12-30T05:56:18.513Z,310.80
2018-12-30T05:57:18.488Z,310.97
2018-12-30T05:58:18.474Z,310.82
2018-12-30T05:59:18.474Z,310.74
2018-12-30T06:00:18.463Z,311.59
2018-12-30T06:01:18.468Z,310.78
2018-12-30T06:02:18.435Z,310.55
2018-12-30T06:03:18.442Z,310.78
2018-12-30T06:04:18.407Z,310.40
2018-12-30T06:05:18.404Z,310.92
2018-12-30T06:06:18.390Z,311.02
2018-12-30T06:07:18.478Z,310.80
2018-12-30T06:08:18.398Z,310.66
2018-12-30T06:09:18.350Z,311.23
2018-12-30T06:10:18.348Z,311.03
2018-12-30T06:11:18.347Z,310.45
2018-12-30T06:12:18.334Z,310.58
2018-12-30T06:13:18.334Z,311.44
2018-12-30T06:14:18.304Z,311.04
2018-12-30T06:15:18.281Z,310.35
2018-12-30T06:16:18.289Z,310.91
2018-12-30T06:17:18.259Z,310.56
2018-12-30T06:18:18.274Z,310.75
2018-12-30T06:19:18.289Z,311.02
2018-12-30T06:20:18.235Z,311.26
2018-12-30T06:21:18.226Z,310.85
2018-12-30T06:22:18.216Z,310.64
2018-12-30T06:23:18.198Z,310.65
2018-12-30T06:24:18.210Z,311.06
2018-12-30T06:25:18.179Z,311.07
2018-12-30T06:26:18.176Z,311.67
2018-12-30T06:27:18.150Z,310.87
2018-12-30T06:28:18.149Z,310.80
2018-12-30T06:29:18.142Z,310.33
2018-12-30T06:30:18.149Z,310.67
2018-12-30T06:31:18.139Z,310.14
2018-12-30T06:32:18.115Z,310.56
2018-12-30T06:33:18.098Z,310.54
2018-12-30T06:34:18.095Z,310.70
2018-12-30T06:35:18.098Z,310.86
2018-12-30T06:36:18.081Z,313.19
2018-12-30T06:37:18.047Z,311.65
2018-12-30T06:38:18.033Z,311.75
2018-12-30T06:39:18.022Z,310.98
2018-12-30T06:40:18.017Z,311.24
2018-12-30T06:41:18.040Z,310.82
2018-12-30T06:42:18.009Z,311.28
2018-12-30T06:43:17.986Z,311.24
2018-12-30T06:44:17.974Z,310.61
2018-12-30T06:45:17.967Z,311.09
2018-12-30T06:46:17.979Z,310.99
2018-12-30T06:47:17.936Z,310.99
2018-12-30T06:48:17.929Z,311.07
2018-12-30T06:49:17.918Z,311.18
2018-12-30T06:50:17.905Z,311.00
2018-12-30T06:51:17.905Z,311.23
2018-12-30T06:52:17.918Z,311.06
2018-12-30T06:53:17.879Z,311.01
2018-12-30T06:54:17.876Z,310.87
2018-12-30T06:55:17.845Z,312.03
2018-12-30T06:56:17.840Z,311.79
2018-12-30T06:57:17.848Z,310.94
2018-12-30T06:58:17.821Z,310.63
2018-12-30T06:59:17.805Z,311.02
2018-12-30T07:00:17.796Z,310.80
2018-12-30T07:01:17.784Z,310.76
2018-12-30T07:02:17.797Z,310.91
2018-12-30T07:03:17.785Z,310.51
2018-12-30T07:04:17.761Z,310.77
2018-12-30T07:05:17.748Z,311.23
2018-12-30T07:06:17.733Z,311.18
2018-12-30T07:07:17.711Z,310.44
2018-12-30T07:08:17.718Z,310.72
2018-12-30T07:09:17.687Z,311.17
2018-12-30T07:10:17.682Z,310.83
2018-12-30T07:11:17.681Z,310.60
2018-12-30T07:12:17.697Z,310.80
2018-12-30T07:13:17.657Z,310.69
2018-12-30T07:14:17.644Z,311.97
2018-12-30T07:15:17.637Z,310.29
2018-12-30T07:16:17.628Z,310.36
2018-12-30T07:17:17.645Z,310.00
2018-12-30T07:18:17.656Z,310.53
2018-12-30T07:19:17.583Z,310.36
2018-12-30T07:20:17.573Z,310.08
2018-12-30T07:21:17.559Z,310.58
2018-12-30T07:22:17.570Z,310.48
2018-12-30T07:23:17.546Z,310.28
2018-12-30T07:24:17.536Z,310.18
2018-12-30T07:25:17.529Z,309.95
2018-12-30T07:26:17.522Z,310.20
2018-12-30T07:27:18.441Z,310.55
2018-12-30T07:28:17.481Z,310.12
2018-12-30T07:29:17.485Z,310.67
2018-12-30T07:30:17.478Z,310.34
2018-12-30T07:31:17.454Z,310.08
2018-12-30T07:32:17.463Z,310.30
2018-12-30T07:33:17.462Z,310.29
2018-12-30T07:34:17.423Z,310.57
2018-12-30T07:35:17.424Z,312.26
2018-12-30T07:36:17.413Z,310.37
2018-12-30T07:37:17.399Z,310.65
2018-12-30T07:38:17.407Z,311.34
2018-12-30T07:39:17.372Z,310.41
2018-12-30T07:40:17.355Z,310.10
2018-12-30T07:41:17.354Z,310.22
2018-12-30T07:42:17.359Z,310.46
2018-12-30T07:43:17.329Z,310.33
2018-12-30T07:44:17.343Z,310.32
2018-12-30T07:45:17.406Z,310.30
2018-12-30T07:46:17.297Z,310.59
2018-12-30T07:47:17.587Z,310.48
2018-12-30T07:48:17.283Z,310.27
2018-12-30T07:49:17.280Z,310.74
2018-12-30T07:50:17.260Z,310.34
2018-12-30T07:51:17.239Z,310.19
2018-12-30T07:52:17.243Z,310.47
2018-12-30T07:53:17.217Z,310.49
2018-12-30T07:54:17.227Z,310.44
2018-12-30T07:55:17.210Z,311.00
2018-12-30T07:56:17.191Z,312.63
2018-12-30T07:57:17.185Z,310.89
2018-12-30T07:58:17.205Z,310.80
2018-12-30T07:59:17.151Z,310.72
2018-12-30T08:00:17.146Z,311.09
2018-12-30T08:01:17.143Z,310.88
2018-12-30T08:02:17.125Z,311.23
2018-12-30T08:03:17.103Z,310.86
2018-12-30T08:04:17.106Z,310.89
2018-12-30T08:05:17.086Z,310.78
2018-12-30T08:06:17.076Z,310.76
2018-12-30T08:07:17.081Z,310.47
2018-12-30T08:08:17.060Z,311.14
2018-12-30T08:09:17.081Z,311.21
2018-12-30T08:10:17.040Z,310.62
2018-12-30T08:11:17.020Z,310.92
2018-12-30T08:12:17.006Z,310.61
2018-12-30T08:13:16.993Z,310.69
2018-12-30T08:14:17.000Z,310.31
2018-12-30T08:15:17.000Z,311.03
2018-12-30T08:16:16.969Z,310.53
2018-12-30T08:17:16.951Z,310.42
2018-12-30T08:18:16.941Z,312.75
2018-12-30T08:19:16.935Z,311.88
2018-12-30T08:20:16.947Z,311.80
2018-12-30T08:21:16.921Z,311.19
2018-12-30T08:22:16.914Z,310.08
2018-12-30T08:23:21.393Z,310.69
2018-12-30T08:24:17.883Z,312.25
2018-12-30T08:25:16.891Z,311.45
2018-12-30T08:26:16.858Z,311.21
2018-12-30T08:27:16.891Z,311.25
2018-12-30T08:28:24.806Z,311.31
2018-12-30T08:29:17.834Z,311.27
2018-12-30T08:30:16.851Z,311.60
2018-12-30T08:31:16.802Z,311.52
2018-12-30T08:32:16.796Z,311.16
2018-12-30T08:33:16.790Z,311.85
2018-12-30T08:34:16.776Z,311.73
2018-12-30T08:35:16.760Z,311.85
2018-12-30T08:36:16.769Z,311.40
2018-12-30T08:37:16.739Z,311.25
2018-12-30T08:38:16.723Z,313.06
2018-12-30T08:39:16.734Z,312.04
2018-12-30T08:40:16.733Z,311.15
2018-12-30T08:41:16.699Z,311.53
2018-12-30T08:42:16.686Z,311.83
2018-12-30T08:43:17.350Z,311.37
2018-12-30T08:44:16.669Z,311.80
2018-12-30T08:45:16.685Z,312.37
2018-12-30T08:46:16.652Z,311.73
2018-12-30T08:47:16.626Z,311.41
2018-12-30T08:48:16.619Z,311.54
2018-12-30T08:49:16.616Z,311.70
2018-12-30T08:50:16.642Z,311.80
2018-12-30T08:51:16.575Z,312.14
2018-12-30T08:52:16.570Z,311.42
2018-12-30T08:53:16.561Z,311.72
2018-12-30T08:54:16.547Z,311.59
2018-12-30T08:55:16.555Z,311.68
2018-12-30T08:56:16.552Z,311.87
2018-12-30T08:57:16.530Z,312.05
2018-12-30T08:58:16.530Z,311.83
2018-12-30T08:59:16.502Z,311.55
2018-12-30T09:00:16.482Z,312.01
2018-12-30T09:01:16.495Z,311.10
2018-12-30T09:02:16.462Z,311.49
2018-12-30T09:03:16.464Z,311.91
2018-12-30T09:04:16.474Z,311.62
2018-12-30T09:05:16.439Z,311.27
2018-12-30T09:06:16.419Z,311.23
2018-12-30T09:07:16.426Z,311.51
2018-12-30T09:08:16.403Z,311.36
2018-12-30T09:09:16.403Z,312.19
2018-12-30T09:10:16.406Z,311.54
2018-12-30T09:11:16.359Z,311.39
2018-12-30T09:12:16.358Z,311.60
2018-12-30T09:13:16.362Z,310.70
2018-12-30T09:14:16.334Z,312.03
2018-12-30T09:15:16.351Z,311.81
2018-12-30T09:16:16.354Z,311.51
2018-12-30T09:17:16.313Z,311.50
2018-12-30T09:18:16.308Z,311.41
2018-12-30T09:19:16.289Z,310.70
2018-12-30T09:20:16.283Z,312.37
2018-12-30T09:21:16.271Z,311.88
2018-12-30T09:22:16.282Z,312.68
2018-12-30T09:23:16.240Z,311.31
2018-12-30T09:24:16.231Z,311.45
2018-12-30T09:25:16.213Z,311.41
2018-12-30T09:26:16.204Z,311.30
2018-12-30T09:27:16.224Z,311.15
2018-12-30T09:28:16.197Z,311.14
2018-12-30T09:29:16.179Z,311.01
2018-12-30T09:30:16.178Z,310.73
2018-12-30T09:31:16.157Z,311.00
2018-12-30T09:32:16.177Z,311.59
2018-12-30T09:33:16.138Z,311.35
2018-12-30T09:34:16.117Z,314.65
2018-12-30T09:35:16.131Z,311.61
2018-12-30T09:36:16.110Z,310.90
2018-12-30T09:37:16.117Z,311.48
2018-12-30T09:38:16.077Z,311.83
2018-12-30T09:39:16.071Z,311.58
2018-12-30T09:40:16.102Z,311.57
2018-12-30T09:41:16.045Z,311.28
2018-12-30T09:42:16.042Z,311.94
2018-12-30T09:43:16.032Z,311.69
2018-12-30T09:44:16.010Z,310.96
2018-12-30T09:45:16.001Z,310.91
2018-12-30T09:46:15.991Z,311.18
2018-12-30T09:47:15.981Z,311.27
2018-12-30T09:48:15.988Z,311.35
2018-12-30T09:49:15.991Z,311.03
2018-12-30T09:50:15.970Z,311.36
2018-12-30T09:51:15.933Z,311.71
2018-12-30T09:52:15.926Z,312.37
2018-12-30T09:53:15.921Z,311.93
2018-12-30T09:54:15.908Z,310.56
2018-12-30T09:55:15.903Z,315.08
2018-12-30T09:56:15.872Z,312.39
2018-12-30T09:57:15.864Z,311.85
2018-12-30T09:58:15.882Z,311.56
2018-12-30T09:59:15.859Z,311.28
2018-12-30T10:00:15.865Z,311.74
2018-12-30T10:01:15.852Z,311.47
2018-12-30T10:02:15.824Z,311.27
2018-12-30T10:03:15.814Z,311.36
2018-12-30T10:04:15.820Z,311.62
2018-12-30T10:05:15.802Z,312.39
2018-12-30T10:06:15.772Z,311.88
2018-12-30T10:07:15.765Z,311.55
2018-12-30T10:08:15.764Z,311.99
2018-12-30T10:09:15.743Z,312.08
2018-12-30T10:10:15.747Z,312.34
2018-12-30T10:11:15.736Z,311.42
2018-12-30T10:12:15.712Z,311.40
2018-12-30T10:13:15.703Z,310.94
2018-12-30T10:14:15.697Z,312.32
2018-12-30T10:15:15.670Z,310.95
2018-12-30T10:16:15.670Z,311.35
2018-12-30T10:17:15.648Z,311.27
2018-12-30T10:18:15.632Z,312.24
2018-12-30T10:19:15.636Z,311.24
2018-12-30T10:20:15.615Z,311.26
2018-12-30T10:21:15.630Z,310.80
2018-12-30T10:22:15.599Z,311.21
2018-12-30T10:23:15.595Z,311.06
2018-12-30T10:24:15.566Z,310.90
2018-12-30T10:25:15.568Z,310.17
2018-12-30T10:26:15.582Z,310.95
2018-12-30T10:27:15.535Z,311.06
2018-12-30T10:28:15.540Z,310.30
2018-12-30T10:29:15.518Z,311.19
2018-12-30T10:30:15.500Z,312.03
2018-12-30T10:31:15.518Z,311.64
2018-12-30T10:32:15.490Z,311.20
2018-12-30T10:33:15.482Z,316.34
2018-12-30T10:34:15.478Z,312.43
2018-12-30T10:35:15.458Z,311.80
2018-12-30T10:36:15.455Z,311.27
2018-12-30T10:37:15.430Z,312.12
2018-12-30T10:38:15.453Z,311.61
2018-12-30T10:39:15.414Z,311.21
2018-12-30T10:40:15.401Z,311.19
2018-12-30T10:41:15.403Z,311.21
2018-12-30T10:42:15.376Z,311.25
2018-12-30T10:43:15.370Z,312.63
2018-12-30T10:44:15.357Z,311.93
2018-12-30T10:45:15.360Z,311.80
2018-12-30T10:46:15.386Z,310.69
2018-12-30T10:47:15.311Z,311.32
2018-12-30T10:48:15.307Z,311.96
2018-12-30T10:49:15.290Z,312.03
2018-12-30T10:50:15.282Z,312.15
2018-12-30T10:51:15.277Z,310.96
2018-12-30T10:52:15.284Z,311.26
2018-12-30T10:53:15.320Z,311.46
2018-12-30T10:54:15.249Z,311.85
2018-12-30T10:55:15.223Z,311.19
2018-12-30T10:56:15.220Z,311.70
2018-12-30T10:57:15.229Z,310.65
2018-12-30T10:58:15.210Z,311.64
2018-12-30T10:59:15.180Z,310.91
2018-12-30T11:00:15.174Z,311.61
2018-12-30T11:01:15.169Z,311.79
2018-12-30T11:02:15.207Z,311.39
2018-12-30T11:03:15.227Z,312.78
2018-12-30T11:04:15.137Z,312.70
2018-12-30T11:05:15.122Z,311.34
2018-12-30T11:06:15.119Z,311.87
2018-12-30T11:07:15.093Z,311.67
2018-12-30T11:08:15.099Z,311.80
2018-12-30T11:09:15.069Z,310.52
2018-12-30T11:10:15.065Z,311.24
2018-12-30T11:11:15.060Z,311.33
2018-12-30T11:12:15.067Z,311.57
2018-12-30T11:13:15.034Z,310.88
2018-12-30T11:14:15.016Z,311.33
2018-12-30T11:15:15.019Z,311.93
2018-12-30T11:16:15.000Z,310.68
2018-12-30T11:17:15.011Z,312.35
2018-12-30T11:18:14.985Z,311.70
2018-12-30T11:19:16.365Z,311.56
2018-12-30T11:20:14.949Z,311.06
2018-12-30T11:21:14.946Z,311.11
2018-12-30T11:22:14.951Z,310.62
2018-12-30T11:23:14.941Z,311.03
2018-12-30T11:24:14.916Z,312.83
2018-12-30T11:25:14.922Z,311.24
2018-12-30T11:26:14.902Z,310.59
2018-12-30T11:27:14.899Z,310.05
2018-12-30T11:28:14.884Z,311.12
2018-12-30T11:29:14.858Z,311.28
2018-12-30T11:30:14.862Z,310.47
2018-12-30T11:31:14.833Z,311.32
2018-12-30T11:32:14.827Z,311.22
2018-12-30T11:33:14.838Z,311.83
2018-12-30T11:34:14.794Z,311.68
2018-12-30T11:35:14.793Z,311.21
2018-12-30T11:36:14.802Z,311.15
2018-12-30T11:37:14.777Z,311.08
2018-12-30T11:38:14.759Z,310.81
2018-12-30T11:39:14.779Z,311.13
2018-12-30T11:40:14.730Z,310.23
2018-12-30T11:41:14.729Z,311.27
2018-12-30T11:42:14.726Z,310.92
2018-12-30T11:43:14.713Z,310.98
2018-12-30T11:44:14.711Z,311.22
2018-12-30T11:45:14.704Z,311.44
2018-12-30T11:46:14.668Z,311.33
2018-12-30T11:47:14.665Z,310.99
2018-12-30T11:48:14.649Z,311.56
2018-12-30T11:49:14.639Z,311.35
2018-12-30T11:50:14.646Z,311.41
2018-12-30T11:51:15.577Z,311.29
2018-12-30T11:52:14.596Z,311.38
2018-12-30T11:53:15.113Z,313.25
2018-12-30T11:54:16.498Z,312.40
2018-12-30T11:55:14.588Z,312.30
2018-12-30T11:56:14.574Z,311.83
2018-12-30T11:57:14.560Z,311.52
2018-12-30T11:58:14.539Z,311.90
2018-12-30T11:59:14.543Z,313.53
2018-12-30T12:00:14.547Z,312.57
2018-12-30T12:01:14.520Z,312.30
2018-12-30T12:02:14.502Z,312.23
2018-12-30T12:03:14.475Z,314.89
2018-12-30T12:04:14.470Z,312.69
2018-12-30T12:05:14.472Z,312.10
2018-12-30T12:06:14.451Z,312.22
2018-12-30T12:07:14.465Z,311.90
2018-12-30T12:08:14.441Z,312.21
2018-12-30T12:09:14.417Z,312.60
2018-12-30T12:10:14.422Z,312.75
2018-12-30T12:11:14.422Z,311.83
2018-12-30T12:12:14.382Z,311.55
2018-12-30T12:13:14.366Z,312.00
2018-12-30T12:14:14.355Z,312.08
2018-12-30T12:15:14.354Z,313.55
2018-12-30T12:16:14.343Z,311.91
2018-12-30T12:17:14.354Z,311.74
2018-12-30T12:18:14.308Z,311.23
2018-12-30T12:19:14.308Z,312.34
2018-12-30T12:20:14.300Z,311.84
2018-12-30T12:21:14.292Z,311.86
2018-12-30T12:22:14.296Z,311.76
2018-12-30T12:23:14.261Z,312.36
2018-12-30T12:24:14.256Z,312.17
2018-12-30T12:25:14.238Z,312.01
2018-12-30T12:26:14.230Z,312.62
2018-12-30T12:27:14.240Z,311.37
2018-12-30T12:28:14.235Z,312.70